sensor_id;sensor_type;location;lat;lon;timestamp;P1;durP1;ratioP1;P2;durP2;ratioP2
8562;SDS011;16392;52.508;13.468;2023-11-19T00:01:32;381.83;;;77.60;;
8562;SDS011;16392;52.508;13.468;2023-11-19T00:03:58;382.53;;;75.90;;
8562;SDS011;16392;52.508;13.468;2023-11-19T00:06:25;384.47;;;77.10;;
8562;SDS011;16392;52.508;13.468;2023-11-19T00:08:54;387.07;;;77.63;;
8562;SDS011;16392;52.508;13.468;2023-11-19T00:11:20;383.50;;;75.33;;
8562;SDS011;16392;52.508;13.468;2023-11-19T00:13:47;380.53;;;75.80;;
8562;SDS011;16392;52.508;13.468;2023-11-19T00:16:13;382.93;;;76.43;;
8562;SDS011;16392;52.508;13.468;2023-11-19T00:18:41;385.67;;;78.93;;
8562;SDS011;16392;52.508;13.468;2023-11-19T00:21:08;389.13;;;85.60;;
8562;SDS011;16392;52.508;13.468;2023-11-19T00:23:35;382.30;;;77.63;;
8562;SDS011;16392;52.508;13.468;2023-11-19T00:26:03;383.70;;;75.27;;
8562;SDS011;16392;52.508;13.468;2023-11-19T00:28:31;383.17;;;77.67;;
8562;SDS011;16392;52.508;13.468;2023-11-19T00:30:58;386.37;;;77.63;;
8562;SDS011;16392;52.508;13.468;2023-11-19T00:33:24;387.67;;;76.47;;
8562;SDS011;16392;52.508;13.468;2023-11-19T00:35:51;380.60;;;75.13;;
8562;SDS011;16392;52.508;13.468;2023-11-19T00:38:17;383.63;;;75.43;;
8562;SDS011;16392;52.508;13.468;2023-11-19T00:40:44;388.40;;;78.47;;
8562;SDS011;16392;52.508;13.468;2023-11-19T00:43:12;386.57;;;76.43;;
8562;SDS011;16392;52.508;13.468;2023-11-19T00:45:38;386.47;;;77.80;;
8562;SDS011;16392;52.508;13.468;2023-11-19T00:48:05;387.40;;;76.80;;
8562;SDS011;16392;52.508;13.468;2023-11-19T00:50:32;386.30;;;80.07;;
8562;SDS011;16392;52.508;13.468;2023-11-19T00:52:58;386.17;;;75.63;;
8562;SDS011;16392;52.508;13.468;2023-11-19T00:55:25;379.50;;;75.13;;
8562;SDS011;16392;52.508;13.468;2023-11-19T00:57:52;389.23;;;78.13;;
8562;SDS011;16392;52.508;13.468;2023-11-19T01:00:20;388.83;;;79.73;;
8562;SDS011;16392;52.508;13.468;2023-11-19T01:02:51;387.80;;;76.83;;
8562;SDS011;16392;52.508;13.468;2023-11-19T01:05:18;386.80;;;76.10;;
8562;SDS011;16392;52.508;13.468;2023-11-19T01:07:47;386.10;;;80.47;;
8562;SDS011;16392;52.508;13.468;2023-11-19T01:10:13;382.50;;;76.27;;
8562;SDS011;16392;52.508;13.468;2023-11-19T01:12:40;384.33;;;80.13;;
8562;SDS011;16392;52.508;13.468;2023-11-19T01:15:07;383.87;;;76.53;;
8562;SDS011;16392;52.508;13.468;2023-11-19T01:17:37;388.50;;;79.13;;
8562;SDS011;16392;52.508;13.468;2023-11-19T01:20:04;386.83;;;76.80;;
8562;SDS011;16392;52.508;13.468;2023-11-19T01:22:32;392.80;;;82.90;;
8562;SDS011;16392;52.508;13.468;2023-11-19T01:24:58;387.77;;;78.43;;
8562;SDS011;16392;52.508;13.468;2023-11-19T01:27:25;386.43;;;76.47;;
8562;SDS011;16392;52.508;13.468;2023-11-19T01:29:51;387.17;;;77.23;;
8562;SDS011;16392;52.508;13.468;2023-11-19T01:32:18;385.07;;;75.53;;
8562;SDS011;16392;52.508;13.468;2023-11-19T01:34:46;388.10;;;82.33;;
8562;SDS011;16392;52.508;13.468;2023-11-19T01:37:12;389.17;;;76.60;;
8562;SDS011;16392;52.508;13.468;2023-11-19T01:39:39;390.13;;;79.40;;
8562;SDS011;16392;52.508;13.468;2023-11-19T01:42:06;385.47;;;75.73;;
8562;SDS011;16392;52.508;13.468;2023-11-19T01:44:32;387.77;;;77.03;;
8562;SDS011;16392;52.508;13.468;2023-11-19T01:46:59;383.30;;;74.30;;
8562;SDS011;16392;52.508;13.468;2023-11-19T01:49:26;385.33;;;76.33;;
8562;SDS011;16392;52.508;13.468;2023-11-19T01:51:55;389.23;;;76.77;;
8562;SDS011;16392;52.508;13.468;2023-11-19T01:54:23;387.77;;;78.07;;
8562;SDS011;16392;52.508;13.468;2023-11-19T01:56:50;385.23;;;77.93;;
8562;SDS011;16392;52.508;13.468;2023-11-19T01:59:21;384.67;;;76.30;;
8562;SDS011;16392;52.508;13.468;2023-11-19T02:01:51;401.57;;;78.70;;
8562;SDS011;16392;52.508;13.468;2023-11-19T02:04:18;389.27;;;76.03;;
8562;SDS011;16392;52.508;13.468;2023-11-19T02:06:45;383.77;;;76.77;;
8562;SDS011;16392;52.508;13.468;2023-11-19T02:09:16;382.53;;;75.93;;
8562;SDS011;16392;52.508;13.468;2023-11-19T02:11:44;387.70;;;78.63;;
8562;SDS011;16392;52.508;13.468;2023-11-19T02:14:14;387.93;;;76.90;;
8562;SDS011;16392;52.508;13.468;2023-11-19T02:16:41;385.63;;;78.27;;
8562;SDS011;16392;52.508;13.468;2023-11-19T02:19:07;384.43;;;74.50;;
8562;SDS011;16392;52.508;13.468;2023-11-19T02:21:35;388.60;;;83.00;;
8562;SDS011;16392;52.508;13.468;2023-11-19T02:24:02;385.80;;;79.03;;
8562;SDS011;16392;52.508;13.468;2023-11-19T02:26:36;387.47;;;78.53;;
8562;SDS011;16392;52.508;13.468;2023-11-19T02:29:06;387.63;;;78.43;;
8562;SDS011;16392;52.508;13.468;2023-11-19T02:31:33;386.57;;;77.57;;
8562;SDS011;16392;52.508;13.468;2023-11-19T02:34:01;387.17;;;80.27;;
8562;SDS011;16392;52.508;13.468;2023-11-19T02:36:28;385.37;;;77.07;;
8562;SDS011;16392;52.508;13.468;2023-11-19T02:38:55;384.80;;;77.23;;
8562;SDS011;16392;52.508;13.468;2023-11-19T02:41:21;386.63;;;75.97;;
8562;SDS011;16392;52.508;13.468;2023-11-19T02:43:48;390.23;;;78.67;;
8562;SDS011;16392;52.508;13.468;2023-11-19T02:46:16;391.40;;;77.27;;
8562;SDS011;16392;52.508;13.468;2023-11-19T02:48:42;385.93;;;78.40;;
8562;SDS011;16392;52.508;13.468;2023-11-19T02:51:09;391.20;;;79.13;;
8562;SDS011;16392;52.508;13.468;2023-11-19T02:53:36;387.23;;;77.67;;
8562;SDS011;16392;52.508;13.468;2023-11-19T02:56:04;391.17;;;79.50;;
8562;SDS011;16392;52.508;13.468;2023-11-19T02:58:40;398.23;;;85.73;;
8562;SDS011;16392;52.508;13.468;2023-11-19T03:01:09;386.47;;;77.97;;
8562;SDS011;16392;52.508;13.468;2023-11-19T03:03:45;390.13;;;80.83;;
8562;SDS011;16392;52.508;13.468;2023-11-19T03:06:14;394.40;;;82.37;;
8562;SDS011;16392;52.508;13.468;2023-11-19T03:08:41;390.63;;;78.77;;
8562;SDS011;16392;52.508;13.468;2023-11-19T03:11:08;388.80;;;77.93;;
8562;SDS011;16392;52.508;13.468;2023-11-19T03:13:35;393.20;;;79.40;;
8562;SDS011;16392;52.508;13.468;2023-11-19T03:16:01;391.83;;;76.87;;
8562;SDS011;16392;52.508;13.468;2023-11-19T03:18:28;390.07;;;78.03;;
8562;SDS011;16392;52.508;13.468;2023-11-19T03:20:56;387.27;;;76.10;;
8562;SDS011;16392;52.508;13.468;2023-11-19T03:23:23;390.00;;;77.03;;
8562;SDS011;16392;52.508;13.468;2023-11-19T03:25:53;392.73;;;78.00;;
8562;SDS011;16392;52.508;13.468;2023-11-19T03:28:19;392.47;;;76.97;;
8562;SDS011;16392;52.508;13.468;2023-11-19T03:30:46;390.33;;;77.57;;
8562;SDS011;16392;52.508;13.468;2023-11-19T03:33:13;389.37;;;76.77;;
8562;SDS011;16392;52.508;13.468;2023-11-19T03:35:39;390.90;;;75.67;;
8562;SDS011;16392;52.508;13.468;2023-11-19T03:38:08;390.73;;;76.90;;
8562;SDS011;16392;52.508;13.468;2023-11-19T03:40:34;387.10;;;76.03;;
8562;SDS011;16392;52.508;13.468;2023-11-19T03:43:03;390.27;;;76.87;;
8562;SDS011;16392;52.508;13.468;2023-11-19T03:45:30;384.73;;;75.20;;
8562;SDS011;16392;52.508;13.468;2023-11-19T03:47:56;386.63;;;78.57;;
8562;SDS011;16392;52.508;13.468;2023-11-19T03:50:23;383.27;;;76.37;;
8562;SDS011;16392;52.508;13.468;2023-11-19T03:52:50;381.63;;;76.33;;
8562;SDS011;16392;52.508;13.468;2023-11-19T03:55:19;388.30;;;77.60;;
8562;SDS011;16392;52.508;13.468;2023-11-19T03:57:45;382.10;;;75.63;;
8562;SDS011;16392;52.508;13.468;2023-11-19T04:00:13;384.20;;;76.47;;
8562;SDS011;16392;52.508;13.468;2023-11-19T04:02:41;383.93;;;75.90;;
8562;SDS011;16392;52.508;13.468;2023-11-19T04:05:08;379.40;;;75.67;;
8562;SDS011;16392;52.508;13.468;2023-11-19T04:07:35;380.73;;;76.83;;
8562;SDS011;16392;52.508;13.468;2023-11-19T04:10:02;381.00;;;77.50;;
8562;SDS011;16392;52.508;13.468;2023-11-19T04:12:30;383.40;;;77.70;;
8562;SDS011;16392;52.508;13.468;2023-11-19T04:14:57;382.60;;;78.87;;
8562;SDS011;16392;52.508;13.468;2023-11-19T04:17:23;378.90;;;74.83;;
8562;SDS011;16392;52.508;13.468;2023-11-19T04:19:50;382.43;;;77.37;;
8562;SDS011;16392;52.508;13.468;2023-11-19T04:22:17;387.17;;;77.13;;
8562;SDS011;16392;52.508;13.468;2023-11-19T04:24:43;382.50;;;79.80;;
8562;SDS011;16392;52.508;13.468;2023-11-19T04:27:10;379.73;;;75.93;;
8562;SDS011;16392;52.508;13.468;2023-11-19T04:29:38;378.10;;;75.53;;
8562;SDS011;16392;52.508;13.468;2023-11-19T04:32:05;377.07;;;74.53;;
8562;SDS011;16392;52.508;13.468;2023-11-19T04:34:32;378.93;;;75.63;;
8562;SDS011;16392;52.508;13.468;2023-11-19T04:36:59;382.30;;;78.57;;
8562;SDS011;16392;52.508;13.468;2023-11-19T04:39:28;379.33;;;77.27;;
8562;SDS011;16392;52.508;13.468;2023-11-19T04:41:55;380.87;;;76.83;;
8562;SDS011;16392;52.508;13.468;2023-11-19T04:44:22;383.57;;;79.23;;
8562;SDS011;16392;52.508;13.468;2023-11-19T04:46:50;388.10;;;78.23;;
8562;SDS011;16392;52.508;13.468;2023-11-19T04:49:16;382.00;;;76.70;;
8562;SDS011;16392;52.508;13.468;2023-11-19T04:51:43;377.70;;;75.43;;
8562;SDS011;16392;52.508;13.468;2023-11-19T04:54:12;380.03;;;78.17;;
8562;SDS011;16392;52.508;13.468;2023-11-19T04:56:39;380.83;;;78.37;;
8562;SDS011;16392;52.508;13.468;2023-11-19T04:59:06;380.40;;;78.00;;
8562;SDS011;16392;52.508;13.468;2023-11-19T05:01:32;378.63;;;76.40;;
8562;SDS011;16392;52.508;13.468;2023-11-19T05:04:00;379.87;;;76.93;;
8562;SDS011;16392;52.508;13.468;2023-11-19T05:06:28;379.43;;;77.53;;
8562;SDS011;16392;52.508;13.468;2023-11-19T05:08:55;377.63;;;78.20;;
8562;SDS011;16392;52.508;13.468;2023-11-19T05:11:22;381.07;;;83.07;;
8562;SDS011;16392;52.508;13.468;2023-11-19T05:13:49;374.23;;;74.37;;
8562;SDS011;16392;52.508;13.468;2023-11-19T05:16:16;381.40;;;79.07;;
8562;SDS011;16392;52.508;13.468;2023-11-19T05:18:43;372.03;;;74.87;;
8562;SDS011;16392;52.508;13.468;2023-11-19T05:21:11;379.13;;;79.00;;
8562;SDS011;16392;52.508;13.468;2023-11-19T05:23:38;376.80;;;75.30;;
8562;SDS011;16392;52.508;13.468;2023-11-19T05:26:07;374.30;;;76.03;;
8562;SDS011;16392;52.508;13.468;2023-11-19T05:28:33;380.13;;;77.17;;
8562;SDS011;16392;52.508;13.468;2023-11-19T05:31:00;374.43;;;75.73;;
8562;SDS011;16392;52.508;13.468;2023-11-19T05:33:26;373.80;;;74.33;;
8562;SDS011;16392;52.508;13.468;2023-11-19T05:35:53;376.20;;;76.37;;
8562;SDS011;16392;52.508;13.468;2023-11-19T05:38:21;376.13;;;75.40;;
8562;SDS011;16392;52.508;13.468;2023-11-19T05:40:47;378.10;;;77.30;;
8562;SDS011;16392;52.508;13.468;2023-11-19T05:43:14;373.77;;;75.33;;
8562;SDS011;16392;52.508;13.468;2023-11-19T05:45:41;381.40;;;76.70;;
8562;SDS011;16392;52.508;13.468;2023-11-19T05:48:08;374.77;;;76.50;;
8562;SDS011;16392;52.508;13.468;2023-11-19T05:50:35;375.17;;;76.63;;
8562;SDS011;16392;52.508;13.468;2023-11-19T05:53:01;377.87;;;79.80;;
8562;SDS011;16392;52.508;13.468;2023-11-19T05:55:32;374.20;;;75.30;;
8562;SDS011;16392;52.508;13.468;2023-11-19T05:58:00;373.33;;;76.80;;
8562;SDS011;16392;52.508;13.468;2023-11-19T06:00:27;375.00;;;79.20;;
8562;SDS011;16392;52.508;13.468;2023-11-19T06:02:53;375.20;;;75.53;;
8562;SDS011;16392;52.508;13.468;2023-11-19T06:05:20;375.10;;;75.40;;
8562;SDS011;16392;52.508;13.468;2023-11-19T06:07:46;377.10;;;78.13;;
8562;SDS011;16392;52.508;13.468;2023-11-19T06:10:13;371.87;;;76.03;;
8562;SDS011;16392;52.508;13.468;2023-11-19T06:12:43;379.00;;;77.43;;
8562;SDS011;16392;52.508;13.468;2023-11-19T06:15:11;377.63;;;80.30;;
8562;SDS011;16392;52.508;13.468;2023-11-19T06:17:38;373.27;;;76.20;;
8562;SDS011;16392;52.508;13.468;2023-11-19T06:20:05;376.57;;;78.47;;
8562;SDS011;16392;52.508;13.468;2023-11-19T06:22:33;379.63;;;77.40;;
8562;SDS011;16392;52.508;13.468;2023-11-19T06:25:00;376.77;;;77.67;;
8562;SDS011;16392;52.508;13.468;2023-11-19T06:27:32;376.93;;;76.23;;
8562;SDS011;16392;52.508;13.468;2023-11-19T06:30:00;383.07;;;76.70;;
8562;SDS011;16392;52.508;13.468;2023-11-19T06:32:26;371.70;;;75.90;;
8562;SDS011;16392;52.508;13.468;2023-11-19T06:34:53;376.40;;;82.47;;
8562;SDS011;16392;52.508;13.468;2023-11-19T06:37:19;374.20;;;75.63;;
8562;SDS011;16392;52.508;13.468;2023-11-19T06:39:47;373.40;;;75.07;;
8562;SDS011;16392;52.508;13.468;2023-11-19T06:42:14;384.07;;;79.60;;
8562;SDS011;16392;52.508;13.468;2023-11-19T06:44:40;371.57;;;75.80;;
8562;SDS011;16392;52.508;13.468;2023-11-19T06:47:08;376.73;;;77.33;;
8562;SDS011;16392;52.508;13.468;2023-11-19T06:49:34;377.87;;;76.97;;
8562;SDS011;16392;52.508;13.468;2023-11-19T06:52:01;374.03;;;75.70;;
8562;SDS011;16392;52.508;13.468;2023-11-19T06:54:29;379.73;;;76.30;;
8562;SDS011;16392;52.508;13.468;2023-11-19T06:56:56;379.33;;;78.53;;
8562;SDS011;16392;52.508;13.468;2023-11-19T06:59:23;374.23;;;75.77;;
8562;SDS011;16392;52.508;13.468;2023-11-19T07:01:49;374.60;;;75.47;;
8562;SDS011;16392;52.508;13.468;2023-11-19T07:04:17;374.87;;;76.10;;
8562;SDS011;16392;52.508;13.468;2023-11-19T07:06:44;374.73;;;75.50;;
8562;SDS011;16392;52.508;13.468;2023-11-19T07:09:11;379.40;;;78.80;;
8562;SDS011;16392;52.508;13.468;2023-11-19T07:11:39;381.10;;;76.30;;
8562;SDS011;16392;52.508;13.468;2023-11-19T07:14:06;378.20;;;77.30;;
8562;SDS011;16392;52.508;13.468;2023-11-19T07:16:33;372.97;;;75.80;;
8562;SDS011;16392;52.508;13.468;2023-11-19T07:19:02;383.93;;;76.33;;
8562;SDS011;16392;52.508;13.468;2023-11-19T07:21:31;377.17;;;75.70;;
8562;SDS011;16392;52.508;13.468;2023-11-19T07:23:58;376.80;;;75.60;;
8562;SDS011;16392;52.508;13.468;2023-11-19T07:26:25;379.13;;;77.17;;
8562;SDS011;16392;52.508;13.468;2023-11-19T07:28:52;374.87;;;76.67;;
8562;SDS011;16392;52.508;13.468;2023-11-19T07:31:18;375.53;;;77.77;;
8562;SDS011;16392;52.508;13.468;2023-11-19T07:33:45;375.30;;;75.23;;
8562;SDS011;16392;52.508;13.468;2023-11-19T07:36:12;379.43;;;82.07;;
8562;SDS011;16392;52.508;13.468;2023-11-19T07:38:40;378.47;;;76.67;;
8562;SDS011;16392;52.508;13.468;2023-11-19T07:41:07;376.73;;;75.83;;
8562;SDS011;16392;52.508;13.468;2023-11-19T07:43:37;375.93;;;76.07;;
8562;SDS011;16392;52.508;13.468;2023-11-19T07:46:05;377.93;;;76.33;;
8562;SDS011;16392;52.508;13.468;2023-11-19T07:48:36;378.13;;;77.00;;
8562;SDS011;16392;52.508;13.468;2023-11-19T07:51:03;376.73;;;76.80;;
8562;SDS011;16392;52.508;13.468;2023-11-19T07:53:30;374.00;;;75.60;;
8562;SDS011;16392;52.508;13.468;2023-11-19T07:55:59;373.90;;;74.87;;
8562;SDS011;16392;52.508;13.468;2023-11-19T07:58:25;376.03;;;78.20;;
8562;SDS011;16392;52.508;13.468;2023-11-19T08:00:52;379.17;;;76.20;;
8562;SDS011;16392;52.508;13.468;2023-11-19T08:03:19;377.13;;;77.77;;
8562;SDS011;16392;52.508;13.468;2023-11-19T08:05:47;378.43;;;75.23;;
8562;SDS011;16392;52.508;13.468;2023-11-19T08:08:14;380.27;;;82.40;;
8562;SDS011;16392;52.508;13.468;2023-11-19T08:10:42;381.43;;;77.17;;
8562;SDS011;16392;52.508;13.468;2023-11-19T08:13:10;377.93;;;76.37;;
8562;SDS011;16392;52.508;13.468;2023-11-19T08:15:37;377.00;;;76.30;;
8562;SDS011;16392;52.508;13.468;2023-11-19T08:18:05;374.20;;;77.13;;
8562;SDS011;16392;52.508;13.468;2023-11-19T08:20:32;379.03;;;74.97;;
8562;SDS011;16392;52.508;13.468;2023-11-19T08:22:59;379.63;;;77.83;;
8562;SDS011;16392;52.508;13.468;2023-11-19T08:25:25;378.93;;;78.17;;
8562;SDS011;16392;52.508;13.468;2023-11-19T08:27:52;380.87;;;76.60;;
8562;SDS011;16392;52.508;13.468;2023-11-19T08:30:20;380.03;;;77.27;;
8562;SDS011;16392;52.508;13.468;2023-11-19T08:32:47;382.77;;;78.00;;
8562;SDS011;16392;52.508;13.468;2023-11-19T08:35:13;375.73;;;76.70;;
8562;SDS011;16392;52.508;13.468;2023-11-19T08:37:41;375.17;;;74.60;;
8562;SDS011;16392;52.508;13.468;2023-11-19T08:40:08;374.87;;;76.63;;
8562;SDS011;16392;52.508;13.468;2023-11-19T08:42:35;375.37;;;77.87;;
8562;SDS011;16392;52.508;13.468;2023-11-19T08:45:04;377.57;;;79.00;;
8562;SDS011;16392;52.508;13.468;2023-11-19T08:47:33;374.50;;;76.17;;
8562;SDS011;16392;52.508;13.468;2023-11-19T08:49:59;374.67;;;76.07;;
8562;SDS011;16392;52.508;13.468;2023-11-19T08:52:26;371.87;;;79.27;;
8562;SDS011;16392;52.508;13.468;2023-11-19T08:54:53;369.90;;;76.83;;
8562;SDS011;16392;52.508;13.468;2023-11-19T08:57:19;370.27;;;77.67;;
8562;SDS011;16392;52.508;13.468;2023-11-19T08:59:46;364.47;;;76.97;;
8562;SDS011;16392;52.508;13.468;2023-11-19T09:02:12;370.47;;;82.10;;
8562;SDS011;16392;52.508;13.468;2023-11-19T09:04:42;364.27;;;78.10;;
8562;SDS011;16392;52.508;13.468;2023-11-19T09:07:09;362.53;;;78.40;;
8562;SDS011;16392;52.508;13.468;2023-11-19T09:09:35;361.60;;;77.57;;
8562;SDS011;16392;52.508;13.468;2023-11-19T09:12:02;362.33;;;78.13;;
8562;SDS011;16392;52.508;13.468;2023-11-19T09:14:29;359.30;;;77.90;;
8562;SDS011;16392;52.508;13.468;2023-11-19T09:16:56;360.10;;;76.63;;
8562;SDS011;16392;52.508;13.468;2023-11-19T09:19:23;355.23;;;76.60;;
8562;SDS011;16392;52.508;13.468;2023-11-19T09:21:52;354.57;;;76.73;;
8562;SDS011;16392;52.508;13.468;2023-11-19T09:24:19;349.03;;;77.50;;
8562;SDS011;16392;52.508;13.468;2023-11-19T09:26:45;348.17;;;77.30;;
8562;SDS011;16392;52.508;13.468;2023-11-19T09:29:12;344.93;;;76.20;;
8562;SDS011;16392;52.508;13.468;2023-11-19T09:31:39;332.47;;;75.10;;
8562;SDS011;16392;52.508;13.468;2023-11-19T09:34:06;337.13;;;76.30;;
8562;SDS011;16392;52.508;13.468;2023-11-19T09:36:32;324.13;;;75.60;;
8562;SDS011;16392;52.508;13.468;2023-11-19T09:39:00;319.73;;;73.47;;
8562;SDS011;16392;52.508;13.468;2023-11-19T09:41:29;312.67;;;74.37;;
8562;SDS011;16392;52.508;13.468;2023-11-19T09:43:56;310.63;;;73.43;;
8562;SDS011;16392;52.508;13.468;2023-11-19T09:46:23;224.33;;;53.47;;
8562;SDS011;16392;52.508;13.468;2023-11-19T09:48:51;309.30;;;71.67;;
8562;SDS011;16392;52.508;13.468;2023-11-19T09:51:20;312.73;;;72.50;;
8562;SDS011;16392;52.508;13.468;2023-11-19T09:53:47;319.20;;;74.30;;
8562;SDS011;16392;52.508;13.468;2023-11-19T09:56:15;319.83;;;74.57;;
8562;SDS011;16392;52.508;13.468;2023-11-19T09:58:42;322.77;;;73.93;;
8562;SDS011;16392;52.508;13.468;2023-11-19T10:01:09;334.53;;;74.97;;
8562;SDS011;16392;52.508;13.468;2023-11-19T10:03:37;334.17;;;74.63;;
8562;SDS011;16392;52.508;13.468;2023-11-19T10:06:06;333.70;;;75.90;;
8562;SDS011;16392;52.508;13.468;2023-11-19T10:08:33;339.37;;;80.67;;
8562;SDS011;16392;52.508;13.468;2023-11-19T10:11:00;344.70;;;74.67;;
8562;SDS011;16392;52.508;13.468;2023-11-19T10:13:28;351.37;;;77.17;;
8562;SDS011;16392;52.508;13.468;2023-11-19T10:15:55;352.57;;;76.13;;
8562;SDS011;16392;52.508;13.468;2023-11-19T10:18:23;360.87;;;84.40;;
8562;SDS011;16392;52.508;13.468;2023-11-19T10:20:51;361.23;;;81.53;;
8562;SDS011;16392;52.508;13.468;2023-11-19T10:23:18;358.90;;;77.40;;
8562;SDS011;16392;52.508;13.468;2023-11-19T10:25:45;361.50;;;77.17;;
8562;SDS011;16392;52.508;13.468;2023-11-19T10:28:11;367.00;;;90.97;;
8562;SDS011;16392;52.508;13.468;2023-11-19T10:30:43;363.63;;;81.00;;
8562;SDS011;16392;52.508;13.468;2023-11-19T10:33:10;360.33;;;78.63;;
8562;SDS011;16392;52.508;13.468;2023-11-19T10:35:51;358.47;;;76.50;;
8562;SDS011;16392;52.508;13.468;2023-11-19T10:38:19;359.23;;;78.93;;
8562;SDS011;16392;52.508;13.468;2023-11-19T10:40:47;365.43;;;80.97;;
8562;SDS011;16392;52.508;13.468;2023-11-19T10:43:13;370.70;;;83.80;;
8562;SDS011;16392;52.508;13.468;2023-11-19T10:45:40;364.63;;;79.70;;
8562;SDS011;16392;52.508;13.468;2023-11-19T10:48:09;352.20;;;76.60;;
8562;SDS011;16392;52.508;13.468;2023-11-19T10:50:38;354.00;;;81.67;;
8562;SDS011;16392;52.508;13.468;2023-11-19T10:53:06;356.50;;;85.87;;
8562;SDS011;16392;52.508;13.468;2023-11-19T10:55:34;351.07;;;77.53;;
8562;SDS011;16392;52.508;13.468;2023-11-19T10:58:03;350.73;;;76.27;;
8562;SDS011;16392;52.508;13.468;2023-11-19T11:00:34;350.77;;;76.93;;
8562;SDS011;16392;52.508;13.468;2023-11-19T11:03:05;349.83;;;75.47;;
8562;SDS011;16392;52.508;13.468;2023-11-19T11:05:37;354.73;;;78.80;;
8562;SDS011;16392;52.508;13.468;2023-11-19T11:08:05;352.40;;;79.93;;
8562;SDS011;16392;52.508;13.468;2023-11-19T11:10:34;352.93;;;77.90;;
8562;SDS011;16392;52.508;13.468;2023-11-19T11:13:05;350.13;;;75.47;;
8562;SDS011;16392;52.508;13.468;2023-11-19T11:15:32;349.50;;;77.03;;
8562;SDS011;16392;52.508;13.468;2023-11-19T11:18:00;352.73;;;77.77;;
8562;SDS011;16392;52.508;13.468;2023-11-19T11:20:29;355.03;;;78.90;;
8562;SDS011;16392;52.508;13.468;2023-11-19T11:23:01;352.90;;;77.23;;
8562;SDS011;16392;52.508;13.468;2023-11-19T11:25:47;355.17;;;78.77;;
8562;SDS011;16392;52.508;13.468;2023-11-19T11:28:26;356.43;;;76.97;;
8562;SDS011;16392;52.508;13.468;2023-11-19T11:31:04;357.27;;;77.07;;
8562;SDS011;16392;52.508;13.468;2023-11-19T11:33:47;355.00;;;78.73;;
8562;SDS011;16392;52.508;13.468;2023-11-19T11:36:29;354.90;;;77.23;;
8562;SDS011;16392;52.508;13.468;2023-11-19T11:39:01;356.83;;;78.10;;
8562;SDS011;16392;52.508;13.468;2023-11-19T11:41:32;356.40;;;80.30;;
8562;SDS011;16392;52.508;13.468;2023-11-19T11:43:59;356.63;;;77.17;;
8562;SDS011;16392;52.508;13.468;2023-11-19T11:49:25;361.40;;;80.30;;
8562;SDS011;16392;52.508;13.468;2023-11-19T11:52:00;365.07;;;80.27;;
8562;SDS011;16392;52.508;13.468;2023-11-19T11:54:30;367.30;;;78.87;;
8562;SDS011;16392;52.508;13.468;2023-11-19T11:57:01;363.03;;;77.93;;
8562;SDS011;16392;52.508;13.468;2023-11-19T11:59:50;370.33;;;80.00;;
8562;SDS011;16392;52.508;13.468;2023-11-19T12:02:17;367.83;;;80.07;;
8562;SDS011;16392;52.508;13.468;2023-11-19T12:04:46;368.07;;;82.33;;
8562;SDS011;16392;52.508;13.468;2023-11-19T12:07:16;366.13;;;79.70;;
8562;SDS011;16392;52.508;13.468;2023-11-19T12:09:47;365.73;;;81.00;;
8562;SDS011;16392;52.508;13.468;2023-11-19T12:12:18;362.90;;;78.77;;
8562;SDS011;16392;52.508;13.468;2023-11-19T12:15:05;360.17;;;80.90;;
8562;SDS011;16392;52.508;13.468;2023-11-19T12:17:40;364.50;;;84.33;;
8562;SDS011;16392;52.508;13.468;2023-11-19T12:20:09;360.23;;;79.93;;
8562;SDS011;16392;52.508;13.468;2023-11-19T12:22:38;362.30;;;78.93;;
8562;SDS011;16392;52.508;13.468;2023-11-19T12:25:06;357.07;;;78.03;;
8562;SDS011;16392;52.508;13.468;2023-11-19T12:27:33;358.67;;;77.63;;
8562;SDS011;16392;52.508;13.468;2023-11-19T12:30:00;361.50;;;81.07;;
8562;SDS011;16392;52.508;13.468;2023-11-19T12:32:36;360.67;;;79.43;;
8562;SDS011;16392;52.508;13.468;2023-11-19T12:35:04;356.73;;;76.90;;
8562;SDS011;16392;52.508;13.468;2023-11-19T12:37:30;356.10;;;78.20;;
8562;SDS011;16392;52.508;13.468;2023-11-19T12:39:58;361.77;;;83.43;;
8562;SDS011;16392;52.508;13.468;2023-11-19T12:42:34;356.90;;;78.23;;
8562;SDS011;16392;52.508;13.468;2023-11-19T12:45:01;353.23;;;76.27;;
8562;SDS011;16392;52.508;13.468;2023-11-19T12:47:29;355.20;;;77.87;;
8562;SDS011;16392;52.508;13.468;2023-11-19T12:49:55;358.10;;;78.70;;
8562;SDS011;16392;52.508;13.468;2023-11-19T12:52:22;359.57;;;76.70;;
8562;SDS011;16392;52.508;13.468;2023-11-19T12:54:49;355.83;;;78.07;;
8562;SDS011;16392;52.508;13.468;2023-11-19T12:57:18;354.30;;;78.83;;
8562;SDS011;16392;52.508;13.468;2023-11-19T12:59:54;354.67;;;78.30;;
8562;SDS011;16392;52.508;13.468;2023-11-19T13:02:21;355.40;;;78.03;;
8562;SDS011;16392;52.508;13.468;2023-11-19T13:04:48;355.47;;;78.97;;
8562;SDS011;16392;52.508;13.468;2023-11-19T13:07:20;362.73;;;77.67;;
8562;SDS011;16392;52.508;13.468;2023-11-19T13:09:47;370.97;;;80.93;;
8562;SDS011;16392;52.508;13.468;2023-11-19T13:12:14;356.10;;;79.43;;
8562;SDS011;16392;52.508;13.468;2023-11-19T13:14:43;360.97;;;80.73;;
8562;SDS011;16392;52.508;13.468;2023-11-19T13:17:14;357.57;;;77.73;;
8562;SDS011;16392;52.508;13.468;2023-11-19T13:19:41;357.73;;;80.40;;
8562;SDS011;16392;52.508;13.468;2023-11-19T13:22:08;355.70;;;77.23;;
8562;SDS011;16392;52.508;13.468;2023-11-19T13:24:34;360.03;;;79.43;;
8562;SDS011;16392;52.508;13.468;2023-11-19T13:27:01;360.53;;;79.83;;
8562;SDS011;16392;52.508;13.468;2023-11-19T13:29:28;360.20;;;78.17;;
8562;SDS011;16392;52.508;13.468;2023-11-19T13:31:56;359.57;;;78.20;;
8562;SDS011;16392;52.508;13.468;2023-11-19T13:34:23;357.33;;;79.17;;
8562;SDS011;16392;52.508;13.468;2023-11-19T13:36:49;361.03;;;79.30;;
8562;SDS011;16392;52.508;13.468;2023-11-19T13:39:16;356.03;;;77.60;;
8562;SDS011;16392;52.508;13.468;2023-11-19T13:41:47;357.37;;;76.90;;
8562;SDS011;16392;52.508;13.468;2023-11-19T13:44:15;359.27;;;79.93;;
8562;SDS011;16392;52.508;13.468;2023-11-19T13:46:44;360.23;;;81.33;;
8562;SDS011;16392;52.508;13.468;2023-11-19T13:49:12;363.07;;;80.00;;
8562;SDS011;16392;52.508;13.468;2023-11-19T13:51:38;358.83;;;77.77;;
8562;SDS011;16392;52.508;13.468;2023-11-19T13:54:05;367.87;;;79.97;;
8562;SDS011;16392;52.508;13.468;2023-11-19T13:56:32;359.30;;;77.60;;
8562;SDS011;16392;52.508;13.468;2023-11-19T13:58:58;359.57;;;79.53;;
8562;SDS011;16392;52.508;13.468;2023-11-19T14:01:25;358.97;;;77.90;;
8562;SDS011;16392;52.508;13.468;2023-11-19T14:03:52;361.47;;;78.67;;
8562;SDS011;16392;52.508;13.468;2023-11-19T14:06:20;360.83;;;79.93;;
8562;SDS011;16392;52.508;13.468;2023-11-19T14:08:47;361.83;;;78.57;;
8562;SDS011;16392;52.508;13.468;2023-11-19T14:11:13;357.27;;;76.77;;
8562;SDS011;16392;52.508;13.468;2023-11-19T14:13:40;359.43;;;77.57;;
8562;SDS011;16392;52.508;13.468;2023-11-19T14:16:07;360.87;;;80.87;;